sensor_id;sensor_type;location;lat;lon;timestamp;P1;durP1;ratioP1;P2;durP2;ratioP2
19448;SDS011;9863;49.404;8.246;2023-03-01T00:01:38;316.83;;;56.67;;
19448;SDS011;9863;49.404;8.246;2023-03-01T00:04:05;340.57;;;63.57;;
19448;SDS011;9863;49.404;8.246;2023-03-01T00:06:32;325.83;;;57.77;;
19448;SDS011;9863;49.404;8.246;2023-03-01T00:08:59;326.33;;;58.80;;
19448;SDS011;9863;49.404;8.246;2023-03-01T00:11:28;321.27;;;57.80;;
19448;SDS011;9863;49.404;8.246;2023-03-01T00:13:58;337.53;;;62.40;;
19448;SDS011;9863;49.404;8.246;2023-03-01T00:16:29;338.73;;;62.90;;
19448;SDS011;9863;49.404;8.246;2023-03-01T00:19:06;322.53;;;58.20;;
19448;SDS011;9863;49.404;8.246;2023-03-01T00:21:38;313.97;;;55.33;;
19448;SDS011;9863;49.404;8.246;2023-03-01T00:24:06;328.87;;;58.53;;
19448;SDS011;9863;49.404;8.246;2023-03-01T00:26:33;328.63;;;59.30;;
19448;SDS011;9863;49.404;8.246;2023-03-01T00:29:00;330.57;;;60.07;;
19448;SDS011;9863;49.404;8.246;2023-03-01T00:31:28;322.97;;;57.63;;
19448;SDS011;9863;49.404;8.246;2023-03-01T00:34:02;322.63;;;57.23;;
19448;SDS011;9863;49.404;8.246;2023-03-01T00:36:32;330.00;;;62.03;;
19448;SDS011;9863;49.404;8.246;2023-03-01T00:39:02;338.17;;;65.53;;
19448;SDS011;9863;49.404;8.246;2023-03-01T00:41:31;320.37;;;58.80;;
19448;SDS011;9863;49.404;8.246;2023-03-01T00:44:00;334.57;;;61.43;;
19448;SDS011;9863;49.404;8.246;2023-03-01T00:46:28;320.30;;;57.23;;
19448;SDS011;9863;49.404;8.246;2023-03-01T00:48:57;347.23;;;65.27;;
19448;SDS011;9863;49.404;8.246;2023-03-01T00:51:25;327.63;;;60.50;;
19448;SDS011;9863;49.404;8.246;2023-03-01T00:53:55;309.33;;;53.90;;
19448;SDS011;9863;49.404;8.246;2023-03-01T00:56:25;336.60;;;63.27;;
19448;SDS011;9863;49.404;8.246;2023-03-01T00:58:53;322.57;;;57.20;;
19448;SDS011;9863;49.404;8.246;2023-03-01T01:01:21;323.87;;;58.03;;
19448;SDS011;9863;49.404;8.246;2023-03-01T01:03:55;319.10;;;56.57;;
19448;SDS011;9863;49.404;8.246;2023-03-01T01:06:24;331.77;;;61.03;;
19448;SDS011;9863;49.404;8.246;2023-03-01T01:09:02;324.07;;;58.93;;
19448;SDS011;9863;49.404;8.246;2023-03-01T01:11:32;327.07;;;59.60;;
19448;SDS011;9863;49.404;8.246;2023-03-01T01:14:01;333.43;;;61.73;;
19448;SDS011;9863;49.404;8.246;2023-03-01T01:16:29;324.87;;;59.53;;
19448;SDS011;9863;49.404;8.246;2023-03-01T01:18:57;324.63;;;58.70;;
19448;SDS011;9863;49.404;8.246;2023-03-01T01:21:24;328.83;;;59.63;;
19448;SDS011;9863;49.404;8.246;2023-03-01T01:23:56;316.77;;;60.60;;
19448;SDS011;9863;49.404;8.246;2023-03-01T01:26:27;315.17;;;56.10;;
19448;SDS011;9863;49.404;8.246;2023-03-01T01:28:58;316.83;;;55.30;;
19448;SDS011;9863;49.404;8.246;2023-03-01T01:31:27;321.10;;;56.53;;
19448;SDS011;9863;49.404;8.246;2023-03-01T01:33:55;315.97;;;55.97;;
19448;SDS011;9863;49.404;8.246;2023-03-01T01:36:23;319.70;;;56.63;;
19448;SDS011;9863;49.404;8.246;2023-03-01T01:38:50;312.27;;;54.47;;
19448;SDS011;9863;49.404;8.246;2023-03-01T01:41:18;315.73;;;56.23;;
19448;SDS011;9863;49.404;8.246;2023-03-01T01:43:48;326.67;;;59.57;;
19448;SDS011;9863;49.404;8.246;2023-03-01T01:46:37;321.97;;;57.27;;
19448;SDS011;9863;49.404;8.246;2023-03-01T01:52:51;321.23;;;56.50;;
19448;SDS011;9863;49.404;8.246;2023-03-01T01:55:06;319.07;;;56.63;;
19448;SDS011;9863;49.404;8.246;2023-03-01T01:57:46;312.90;;;53.87;;
19448;SDS011;9863;49.404;8.246;2023-03-01T02:00:18;316.57;;;56.13;;
19448;SDS011;9863;49.404;8.246;2023-03-01T02:02:49;325.13;;;57.57;;
19448;SDS011;9863;49.404;8.246;2023-03-01T02:05:32;311.67;;;53.93;;
19448;SDS011;9863;49.404;8.246;2023-03-01T02:08:38;316.97;;;56.03;;
19448;SDS011;9863;49.404;8.246;2023-03-01T02:11:08;318.80;;;56.57;;
19448;SDS011;9863;49.404;8.246;2023-03-01T02:13:36;351.17;;;65.93;;
19448;SDS011;9863;49.404;8.246;2023-03-01T02:16:05;311.67;;;54.53;;
19448;SDS011;9863;49.404;8.246;2023-03-01T02:18:36;326.10;;;68.73;;
19448;SDS011;9863;49.404;8.246;2023-03-01T02:24:21;323.20;;;57.30;;
19448;SDS011;9863;49.404;8.246;2023-03-01T02:27:04;315.43;;;67.37;;
19448;SDS011;9863;49.404;8.246;2023-03-01T02:29:31;330.30;;;60.47;;
19448;SDS011;9863;49.404;8.246;2023-03-01T02:31:59;328.30;;;59.07;;
19448;SDS011;9863;49.404;8.246;2023-03-01T02:34:30;310.53;;;55.87;;
19448;SDS011;9863;49.404;8.246;2023-03-01T02:37:03;315.23;;;55.63;;
19448;SDS011;9863;49.404;8.246;2023-03-01T02:39:42;327.17;;;60.40;;
19448;SDS011;9863;49.404;8.246;2023-03-01T02:42:22;305.17;;;56.03;;
19448;SDS011;9863;49.404;8.246;2023-03-01T02:44:54;313.77;;;57.50;;
19448;SDS011;9863;49.404;8.246;2023-03-01T02:47:22;314.73;;;56.53;;
19448;SDS011;9863;49.404;8.246;2023-03-01T02:49:49;320.87;;;56.90;;
19448;SDS011;9863;49.404;8.246;2023-03-01T02:55:14;311.83;;;63.70;;
19448;SDS011;9863;49.404;8.246;2023-03-01T02:57:44;320.13;;;61.17;;
19448;SDS011;9863;49.404;8.246;2023-03-01T03:00:21;324.40;;;65.33;;
19448;SDS011;9863;49.404;8.246;2023-03-01T03:02:53;313.70;;;54.63;;
19448;SDS011;9863;49.404;8.246;2023-03-01T03:05:25;318.27;;;56.90;;
19448;SDS011;9863;49.404;8.246;2023-03-01T03:07:55;316.30;;;56.73;;
19448;SDS011;9863;49.404;8.246;2023-03-01T03:10:28;335.27;;;61.43;;
19448;SDS011;9863;49.404;8.246;2023-03-01T03:13:05;312.70;;;54.63;;
19448;SDS011;9863;49.404;8.246;2023-03-01T03:15:37;317.00;;;56.47;;
19448;SDS011;9863;49.404;8.246;2023-03-01T03:18:07;318.33;;;56.70;;
19448;SDS011;9863;49.404;8.246;2023-03-01T03:20:40;320.57;;;56.70;;
19448;SDS011;9863;49.404;8.246;2023-03-01T03:23:09;315.80;;;57.83;;
19448;SDS011;9863;49.404;8.246;2023-03-01T03:25:36;319.73;;;56.13;;
19448;SDS011;9863;49.404;8.246;2023-03-01T03:28:04;335.03;;;63.60;;
19448;SDS011;9863;49.404;8.246;2023-03-01T03:30:38;338.90;;;65.57;;
19448;SDS011;9863;49.404;8.246;2023-03-01T03:33:06;317.77;;;56.37;;
19448;SDS011;9863;49.404;8.246;2023-03-01T03:35:39;385.53;;;80.73;;
19448;SDS011;9863;49.404;8.246;2023-03-01T03:38:14;379.37;;;77.77;;
19448;SDS011;9863;49.404;8.246;2023-03-01T03:40:47;319.00;;;57.90;;
19448;SDS011;9863;49.404;8.246;2023-03-01T03:43:19;325.43;;;58.30;;
19448;SDS011;9863;49.404;8.246;2023-03-01T03:45:50;357.87;;;70.13;;
19448;SDS011;9863;49.404;8.246;2023-03-01T03:48:17;330.90;;;61.00;;
19448;SDS011;9863;49.404;8.246;2023-03-01T03:50:49;356.10;;;69.17;;
19448;SDS011;9863;49.404;8.246;2023-03-01T03:53:20;344.93;;;66.50;;
19448;SDS011;9863;49.404;8.246;2023-03-01T03:55:50;316.10;;;58.47;;
19448;SDS011;9863;49.404;8.246;2023-03-01T03:58:18;316.87;;;56.17;;
19448;SDS011;9863;49.404;8.246;2023-03-01T04:00:48;333.37;;;59.77;;
19448;SDS011;9863;49.404;8.246;2023-03-01T04:03:22;363.33;;;176.07;;
19448;SDS011;9863;49.404;8.246;2023-03-01T04:05:52;362.13;;;216.17;;
19448;SDS011;9863;49.404;8.246;2023-03-01T04:08:21;353.30;;;196.70;;
19448;SDS011;9863;49.404;8.246;2023-03-01T04:10:51;384.33;;;236.77;;
19448;SDS011;9863;49.404;8.246;2023-03-01T04:13:26;367.40;;;229.87;;
19448;SDS011;9863;49.404;8.246;2023-03-01T04:15:54;330.27;;;59.50;;
19448;SDS011;9863;49.404;8.246;2023-03-01T04:18:22;331.13;;;59.47;;
19448;SDS011;9863;49.404;8.246;2023-03-01T04:20:52;322.27;;;56.93;;
19448;SDS011;9863;49.404;8.246;2023-03-01T04:23:21;307.50;;;55.87;;
19448;SDS011;9863;49.404;8.246;2023-03-01T04:28:25;308.10;;;53.43;;
19448;SDS011;9863;49.404;8.246;2023-03-01T04:30:56;323.23;;;58.47;;
19448;SDS011;9863;49.404;8.246;2023-03-01T04:33:24;328.23;;;58.50;;
19448;SDS011;9863;49.404;8.246;2023-03-01T04:35:52;330.27;;;60.10;;
19448;SDS011;9863;49.404;8.246;2023-03-01T04:38:19;324.10;;;57.90;;
19448;SDS011;9863;49.404;8.246;2023-03-01T04:40:47;314.97;;;55.97;;
19448;SDS011;9863;49.404;8.246;2023-03-01T04:43:14;330.43;;;61.10;;
19448;SDS011;9863;49.404;8.246;2023-03-01T04:45:41;332.43;;;61.47;;
19448;SDS011;9863;49.404;8.246;2023-03-01T04:48:09;331.87;;;76.73;;
19448;SDS011;9863;49.404;8.246;2023-03-01T04:50:36;318.57;;;57.27;;
19448;SDS011;9863;49.404;8.246;2023-03-01T04:53:03;350.43;;;68.47;;
19448;SDS011;9863;49.404;8.246;2023-03-01T04:55:30;346.97;;;66.83;;
19448;SDS011;9863;49.404;8.246;2023-03-01T04:57:57;321.37;;;60.40;;
19448;SDS011;9863;49.404;8.246;2023-03-01T05:00:25;331.80;;;61.03;;
19448;SDS011;9863;49.404;8.246;2023-03-01T05:02:53;335.73;;;62.13;;
19448;SDS011;9863;49.404;8.246;2023-03-01T05:05:27;302.67;;;53.20;;
19448;SDS011;9863;49.404;8.246;2023-03-01T05:08:05;313.93;;;55.13;;
19448;SDS011;9863;49.404;8.246;2023-03-01T05:10:35;347.67;;;127.67;;
19448;SDS011;9863;49.404;8.246;2023-03-01T05:13:05;325.13;;;137.47;;
19448;SDS011;9863;49.404;8.246;2023-03-01T05:15:32;321.00;;;93.17;;
19448;SDS011;9863;49.404;8.246;2023-03-01T05:17:59;323.73;;;95.87;;
19448;SDS011;9863;49.404;8.246;2023-03-01T05:20:28;323.80;;;85.30;;
19448;SDS011;9863;49.404;8.246;2023-03-01T05:22:57;343.27;;;91.20;;
19448;SDS011;9863;49.404;8.246;2023-03-01T05:25:26;367.93;;;116.07;;
19448;SDS011;9863;49.404;8.246;2023-03-01T05:28:00;324.23;;;80.10;;
19448;SDS011;9863;49.404;8.246;2023-03-01T05:30:31;326.37;;;84.57;;
19448;SDS011;9863;49.404;8.246;2023-03-01T05:33:00;329.97;;;81.33;;
19448;SDS011;9863;49.404;8.246;2023-03-01T05:35:27;325.60;;;82.53;;
19448;SDS011;9863;49.404;8.246;2023-03-01T05:37:55;310.90;;;71.23;;
19448;SDS011;9863;49.404;8.246;2023-03-01T05:40:23;314.90;;;73.30;;
19448;SDS011;9863;49.404;8.246;2023-03-01T05:42:55;328.30;;;74.80;;
19448;SDS011;9863;49.404;8.246;2023-03-01T05:45:24;326.57;;;73.30;;
19448;SDS011;9863;49.404;8.246;2023-03-01T05:47:53;318.60;;;72.47;;
19448;SDS011;9863;49.404;8.246;2023-03-01T05:50:26;332.47;;;82.50;;
19448;SDS011;9863;49.404;8.246;2023-03-01T05:55:35;324.83;;;70.37;;
19448;SDS011;9863;49.404;8.246;2023-03-01T05:58:04;319.87;;;70.43;;
19448;SDS011;9863;49.404;8.246;2023-03-01T06:00:35;327.53;;;73.53;;
19448;SDS011;9863;49.404;8.246;2023-03-01T06:03:02;324.37;;;69.93;;
19448;SDS011;9863;49.404;8.246;2023-03-01T06:05:30;320.73;;;67.13;;
19448;SDS011;9863;49.404;8.246;2023-03-01T06:08:01;324.27;;;68.53;;
19448;SDS011;9863;49.404;8.246;2023-03-01T06:10:29;322.60;;;66.50;;
19448;SDS011;9863;49.404;8.246;2023-03-01T06:12:56;330.07;;;68.90;;
19448;SDS011;9863;49.404;8.246;2023-03-01T06:15:24;342.63;;;74.87;;
19448;SDS011;9863;49.404;8.246;2023-03-01T06:17:53;341.60;;;72.80;;
19448;SDS011;9863;49.404;8.246;2023-03-01T06:20:25;335.07;;;71.70;;
19448;SDS011;9863;49.404;8.246;2023-03-01T06:22:54;351.33;;;77.47;;
19448;SDS011;9863;49.404;8.246;2023-03-01T06:25:22;330.73;;;69.20;;
19448;SDS011;9863;49.404;8.246;2023-03-01T06:27:51;328.00;;;68.47;;
19448;SDS011;9863;49.404;8.246;2023-03-01T06:30:19;316.70;;;66.13;;
19448;SDS011;9863;49.404;8.246;2023-03-01T06:32:48;359.70;;;81.83;;
19448;SDS011;9863;49.404;8.246;2023-03-01T06:35:16;320.93;;;89.83;;
19448;SDS011;9863;49.404;8.246;2023-03-01T06:37:45;324.43;;;70.53;;
19448;SDS011;9863;49.404;8.246;2023-03-01T06:43:05;365.30;;;86.73;;
19448;SDS011;9863;49.404;8.246;2023-03-01T06:45:33;340.43;;;66.53;;
19448;SDS011;9863;49.404;8.246;2023-03-01T06:48:01;328.73;;;62.43;;
19448;SDS011;9863;49.404;8.246;2023-03-01T06:50:30;341.40;;;66.93;;
19448;SDS011;9863;49.404;8.246;2023-03-01T06:52:57;357.23;;;77.73;;
19448;SDS011;9863;49.404;8.246;2023-03-01T06:55:25;346.53;;;68.23;;
19448;SDS011;9863;49.404;8.246;2023-03-01T06:57:55;318.47;;;59.53;;
19448;SDS011;9863;49.404;8.246;2023-03-01T07:00:24;350.20;;;72.10;;
19448;SDS011;9863;49.404;8.246;2023-03-01T07:02:52;329.53;;;80.33;;
19448;SDS011;9863;49.404;8.246;2023-03-01T07:05:20;384.53;;;89.60;;
19448;SDS011;9863;49.404;8.246;2023-03-01T07:07:47;330.63;;;74.97;;
19448;SDS011;9863;49.404;8.246;2023-03-01T07:10:14;331.67;;;76.07;;
19448;SDS011;9863;49.404;8.246;2023-03-01T07:12:42;324.53;;;79.87;;
19448;SDS011;9863;49.404;8.246;2023-03-01T07:15:09;358.77;;;150.80;;
19448;SDS011;9863;49.404;8.246;2023-03-01T07:17:37;318.80;;;74.47;;
19448;SDS011;9863;49.404;8.246;2023-03-01T07:20:04;332.07;;;80.10;;
19448;SDS011;9863;49.404;8.246;2023-03-01T07:22:31;331.50;;;83.67;;
19448;SDS011;9863;49.404;8.246;2023-03-01T07:24:58;317.37;;;75.33;;
19448;SDS011;9863;49.404;8.246;2023-03-01T07:27:26;323.17;;;78.17;;
19448;SDS011;9863;49.404;8.246;2023-03-01T07:29:53;322.23;;;79.23;;
19448;SDS011;9863;49.404;8.246;2023-03-01T07:32:20;316.97;;;55.87;;
19448;SDS011;9863;49.404;8.246;2023-03-01T07:34:47;317.53;;;56.97;;
19448;SDS011;9863;49.404;8.246;2023-03-01T07:37:14;324.73;;;60.43;;
19448;SDS011;9863;49.404;8.246;2023-03-01T07:39:41;317.63;;;57.17;;
19448;SDS011;9863;49.404;8.246;2023-03-01T07:42:08;313.47;;;56.60;;
19448;SDS011;9863;49.404;8.246;2023-03-01T07:44:35;309.03;;;54.80;;
19448;SDS011;9863;49.404;8.246;2023-03-01T07:47:03;330.70;;;62.57;;
19448;SDS011;9863;49.404;8.246;2023-03-01T07:49:30;312.33;;;56.50;;
19448;SDS011;9863;49.404;8.246;2023-03-01T07:51:57;313.53;;;55.87;;
19448;SDS011;9863;49.404;8.246;2023-03-01T07:54:25;340.33;;;64.10;;
19448;SDS011;9863;49.404;8.246;2023-03-01T07:56:52;319.33;;;58.07;;
19448;SDS011;9863;49.404;8.246;2023-03-01T07:59:20;341.53;;;66.17;;
19448;SDS011;9863;49.404;8.246;2023-03-01T08:01:49;324.20;;;60.73;;
19448;SDS011;9863;49.404;8.246;2023-03-01T08:04:16;333.67;;;64.27;;
19448;SDS011;9863;49.404;8.246;2023-03-01T08:06:43;333.63;;;64.37;;
19448;SDS011;9863;49.404;8.246;2023-03-01T08:09:10;345.33;;;67.00;;
19448;SDS011;9863;49.404;8.246;2023-03-01T08:11:37;319.33;;;59.60;;
19448;SDS011;9863;49.404;8.246;2023-03-01T08:14:05;344.87;;;67.50;;
19448;SDS011;9863;49.404;8.246;2023-03-01T08:16:33;335.17;;;64.53;;
19448;SDS011;9863;49.404;8.246;2023-03-01T08:19:05;337.40;;;65.23;;
19448;SDS011;9863;49.404;8.246;2023-03-01T08:21:37;318.73;;;61.87;;
19448;SDS011;9863;49.404;8.246;2023-03-01T08:24:05;350.73;;;71.47;;
19448;SDS011;9863;49.404;8.246;2023-03-01T08:26:33;334.77;;;65.70;;
19448;SDS011;9863;49.404;8.246;2023-03-01T08:29:00;330.73;;;63.63;;
19448;SDS011;9863;49.404;8.246;2023-03-01T08:31:36;336.63;;;67.20;;
19448;SDS011;9863;49.404;8.246;2023-03-01T08:34:09;345.63;;;70.37;;
19448;SDS011;9863;49.404;8.246;2023-03-01T08:36:41;322.90;;;63.27;;
19448;SDS011;9863;49.404;8.246;2023-03-01T08:39:12;340.93;;;68.10;;
19448;SDS011;9863;49.404;8.246;2023-03-01T08:41:42;328.80;;;64.63;;
19448;SDS011;9863;49.404;8.246;2023-03-01T08:44:13;332.30;;;67.33;;
19448;SDS011;9863;49.404;8.246;2023-03-01T08:46:43;321.63;;;64.03;;
19448;SDS011;9863;49.404;8.246;2023-03-01T08:49:13;356.77;;;75.73;;
19448;SDS011;9863;49.404;8.246;2023-03-01T08:51:42;327.53;;;65.30;;
19448;SDS011;9863;49.404;8.246;2023-03-01T08:54:14;351.00;;;72.73;;
19448;SDS011;9863;49.404;8.246;2023-03-01T08:56:45;333.20;;;67.27;;
19448;SDS011;9863;49.404;8.246;2023-03-01T08:59:13;334.00;;;68.57;;
19448;SDS011;9863;49.404;8.246;2023-03-01T09:01:42;350.70;;;74.10;;
19448;SDS011;9863;49.404;8.246;2023-03-01T09:04:12;333.70;;;68.70;;
19448;SDS011;9863;49.404;8.246;2023-03-01T09:06:42;334.70;;;66.10;;
19448;SDS011;9863;49.404;8.246;2023-03-01T09:09:13;346.70;;;74.43;;
19448;SDS011;9863;49.404;8.246;2023-03-01T09:11:43;316.47;;;64.73;;
19448;SDS011;9863;49.404;8.246;2023-03-01T09:14:16;357.93;;;77.23;;
19448;SDS011;9863;49.404;8.246;2023-03-01T09:16:43;329.77;;;67.13;;
19448;SDS011;9863;49.404;8.246;2023-03-01T09:19:11;355.37;;;76.47;;
19448;SDS011;9863;49.404;8.246;2023-03-01T09:21:39;335.63;;;70.63;;
19448;SDS011;9863;49.404;8.246;2023-03-01T09:24:11;350.17;;;74.03;;
19448;SDS011;9863;49.404;8.246;2023-03-01T09:26:41;377.10;;;92.23;;
19448;SDS011;9863;49.404;8.246;2023-03-01T09:29:14;345.20;;;80.23;;
19448;SDS011;9863;49.404;8.246;2023-03-01T09:31:42;339.30;;;74.27;;
19448;SDS011;9863;49.404;8.246;2023-03-01T09:34:10;333.47;;;74.13;;
19448;SDS011;9863;49.404;8.246;2023-03-01T09:36:37;324.80;;;69.93;;
19448;SDS011;9863;49.404;8.246;2023-03-01T09:39:04;340.50;;;79.97;;
19448;SDS011;9863;49.404;8.246;2023-03-01T09:44:18;345.47;;;80.53;;
19448;SDS011;9863;49.404;8.246;2023-03-01T09:47:09;351.33;;;83.57;;
19448;SDS011;9863;49.404;8.246;2023-03-01T09:55:45;348.53;;;76.07;;
19448;SDS011;9863;49.404;8.246;2023-03-01T09:58:46;342.50;;;75.10;;
19448;SDS011;9863;49.404;8.246;2023-03-01T10:04:47;355.90;;;80.87;;
19448;SDS011;9863;49.404;8.246;2023-03-01T10:10:37;363.60;;;90.30;;
19448;SDS011;9863;49.404;8.246;2023-03-01T10:15:47;346.33;;;81.13;;
19448;SDS011;9863;49.404;8.246;2023-03-01T10:18:29;344.50;;;94.00;;
19448;SDS011;9863;49.404;8.246;2023-03-01T10:21:05;395.40;;;114.50;;
19448;SDS011;9863;49.404;8.246;2023-03-01T10:23:44;378.00;;;106.53;;
19448;SDS011;9863;49.404;8.246;2023-03-01T10:29:05;340.27;;;92.93;;
19448;SDS011;9863;49.404;8.246;2023-03-01T10:31:46;365.17;;;93.43;;
19448;SDS011;9863;49.404;8.246;2023-03-01T10:34:18;367.67;;;101.93;;
19448;SDS011;9863;49.404;8.246;2023-03-01T10:36:51;358.87;;;97.73;;
19448;SDS011;9863;49.404;8.246;2023-03-01T10:39:35;368.87;;;105.73;;
19448;SDS011;9863;49.404;8.246;2023-03-01T10:42:05;368.00;;;101.20;;
19448;SDS011;9863;49.404;8.246;2023-03-01T10:44:53;347.40;;;94.83;;
19448;SDS011;9863;49.404;8.246;2023-03-01T10:47:25;376.07;;;104.17;;
19448;SDS011;9863;49.404;8.246;2023-03-01T10:50:02;356.73;;;92.07;;
19448;SDS011;9863;49.404;8.246;2023-03-01T10:52:34;380.50;;;127.30;;
19448;SDS011;9863;49.404;8.246;2023-03-01T10:55:24;360.93;;;100.03;;
19448;SDS011;9863;49.404;8.246;2023-03-01T11:00:53;386.37;;;112.00;;
19448;SDS011;9863;49.404;8.246;2023-03-01T11:03:28;365.07;;;145.13;;
19448;SDS011;9863;49.404;8.246;2023-03-01T11:06:03;357.60;;;101.37;;
19448;SDS011;9863;49.404;8.246;2023-03-01T11:13:52;369.08;;;104.38;;
19448;SDS011;9863;49.404;8.246;2023-03-01T11:16:59;345.58;;;100.82;;
19448;SDS011;9863;49.404;8.246;2023-03-01T11:20:13;389.27;;;118.25;;
19448;SDS011;9863;49.404;8.246;2023-03-01T11:22:59;393.10;;;135.73;;
19448;SDS011;9863;49.404;8.246;2023-03-01T11:25:35;379.20;;;116.22;;
19448;SDS011;9863;49.404;8.246;2023-03-01T11:28:10;389.20;;;125.53;;
19448;SDS011;9863;49.404;8.246;2023-03-01T11:33:48;383.50;;;130.73;;
19448;SDS011;9863;49.404;8.246;2023-03-01T11:39:04;385.75;;;137.88;;
19448;SDS011;9863;49.404;8.246;2023-03-01T11:41:49;392.70;;;146.02;;
19448;SDS011;9863;49.404;8.246;2023-03-01T11:44:43;413.48;;;155.48;;
19448;SDS011;9863;49.404;8.246;2023-03-01T11:59:48;402.48;;;159.77;;
19448;SDS011;9863;49.404;8.246;2023-03-01T12:05:19;419.92;;;184.73;;
19448;SDS011;9863;49.404;8.246;2023-03-01T12:10:56;389.23;;;178.00;;
19448;SDS011;9863;49.404;8.246;2023-03-01T12:18:03;393.48;;;183.18;;
19448;SDS011;9863;49.404;8.246;2023-03-01T12:20:51;411.15;;;186.48;;
19448;SDS011;9863;49.404;8.246;2023-03-01T12:23:41;405.95;;;197.15;;
19448;SDS011;9863;49.404;8.246;2023-03-01T12:43:03;409.15;;;227.10;;
19448;SDS011;9863;49.404;8.246;2023-03-01T12:48:43;422.38;;;239.80;;
19448;SDS011;9863;49.404;8.246;2023-03-01T12:51:32;423.17;;;240.00;;
19448;SDS011;9863;49.404;8.246;2023-03-01T12:54:05;421.40;;;245.45;;
19448;SDS011;9863;49.404;8.246;2023-03-01T12:56:43;429.83;;;258.88;;
19448;SDS011;9863;49.404;8.246;2023-03-01T13:05:52;415.42;;;245.73;;
19448;SDS011;9863;49.404;8.246;2023-03-01T13:11:49;439.05;;;278.63;;
19448;SDS011;9863;49.404;8.246;2023-03-01T13:16:49;448.75;;;304.27;;
19448;SDS011;9863;49.404;8.246;2023-03-01T13:19:26;421.60;;;278.95;;
19448;SDS011;9863;49.404;8.246;2023-03-01T13:21:56;409.38;;;260.95;;
19448;SDS011;9863;49.404;8.246;2023-03-01T13:29:43;412.48;;;271.42;;
19448;SDS011;9863;49.404;8.246;2023-03-01T13:32:22;404.77;;;272.58;;
19448;SDS011;9863;49.404;8.246;2023-03-01T13:37:43;447.35;;;291.80;;
19448;SDS011;9863;49.404;8.246;2023-03-01T13:42:49;439.02;;;294.02;;
19448;SDS011;9863;49.404;8.246;2023-03-01T13:45:39;448.40;;;298.45;;
19448;SDS011;9863;49.404;8.246;2023-03-01T13:48:16;443.50;;;296.38;;
19448;SDS011;9863;49.404;8.246;2023-03-01T13:51:30;441.48;;;295.00;;
19448;SDS011;9863;49.404;8.246;2023-03-01T13:53:53;428.02;;;291.80;;
19448;SDS011;9863;49.404;8.246;2023-03-01T13:56:27;434.00;;;293.83;;
19448;SDS011;9863;49.404;8.246;2023-03-01T13:59:03;437.58;;;302.83;;
19448;SDS011;9863;49.404;8.246;2023-03-01T14:01:43;436.67;;;299.40;;
19448;SDS011;9863;49.404;8.246;2023-03-01T14:04:20;411.33;;;287.33;;
19448;SDS011;9863;49.404;8.246;2023-03-01T14:07:08;425.73;;;297.27;;
19448;SDS011;9863;49.404;8.246;2023-03-01T14:09:49;417.52;;;284.55;;
19448;SDS011;9863;49.404;8.246;2023-03-01T14:15:27;434.15;;;303.35;;
19448;SDS011;9863;49.404;8.246;2023-03-01T14:18:04;459.65;;;319.08;;
19448;SDS011;9863;49.404;8.246;2023-03-01T14:20:47;446.92;;;316.17;;
19448;SDS011;9863;49.404;8.246;2023-03-01T14:23:22;446.90;;;316.30;;
19448;SDS011;9863;49.404;8.246;2023-03-01T14:25:51;422.60;;;306.05;;
19448;SDS011;9863;49.404;8.246;2023-03-01T14:28:27;433.75;;;311.42;;
19448;SDS011;9863;49.404;8.246;2023-03-01T14:33:41;466.23;;;330.92;;
19448;SDS011;9863;49.404;8.246;2023-03-01T14:36:09;407.30;;;298.23;;
19448;SDS011;9863;49.404;8.246;2023-03-01T14:38:40;434.85;;;311.38;;
19448;SDS011;9863;49.404;8.246;2023-03-01T14:41:17;409.52;;;302.08;;
19448;SDS011;9863;49.404;8.246;2023-03-01T14:51:49;407.75;;;285.80;;
19448;SDS011;9863;49.404;8.246;2023-03-01T14:57:17;409.23;;;292.55;;
19448;SDS011;9863;49.404;8.246;2023-03-01T14:59:52;412.83;;;299.25;;
19448;SDS011;9863;49.404;8.246;2023-03-01T15:02:23;416.58;;;296.42;;
19448;SDS011;9863;49.404;8.246;2023-03-01T15:04:54;405.58;;;296.30;;
19448;SDS011;9863;49.404;8.246;2023-03-01T15:07:30;417.33;;;295.55;;
19448;SDS011;9863;49.404;8.246;2023-03-01T15:10:01;412.20;;;293.98;;
19448;SDS011;9863;49.404;8.246;2023-03-01T15:14:57;404.73;;;288.27;;
19448;SDS011;9863;49.404;8.246;2023-03-01T15:17:33;408.48;;;290.65;;
19448;SDS011;9863;49.404;8.246;2023-03-01T15:20:04;402.20;;;287.85;;
19448;SDS011;9863;49.404;8.246;2023-03-01T15:22:43;411.25;;;291.58;;
19448;SDS011;9863;49.404;8.246;2023-03-01T15:25:18;400.83;;;288.83;;
19448;SDS011;9863;49.404;8.246;2023-03-01T15:27:50;404.80;;;291.90;;
19448;SDS011;9863;49.404;8.246;2023-03-01T15:30:21;421.02;;;307.45;;
19448;SDS011;9863;49.404;8.246;2023-03-01T15:33:16;418.45;;;299.52;;
19448;SDS011;9863;49.404;8.246;2023-03-01T15:36:04;408.00;;;295.75;;
19448;SDS011;9863;49.404;8.246;2023-03-01T15:45:09;420.38;;;309.25;;
19448;SDS011;9863;49.404;8.246;2023-03-01T15:47:47;418.92;;;303.02;;
19448;SDS011;9863;49.404;8.246;2023-03-01T15:52:57;408.88;;;292.00;;
19448;SDS011;9863;49.404;8.246;2023-03-01T15:55:27;421.77;;;296.33;;
19448;SDS011;9863;49.404;8.246;2023-03-01T15:58:01;411.00;;;291.27;;
19448;SDS011;9863;49.404;8.246;2023-03-01T16:00:35;405.85;;;281.08;;
19448;SDS011;9863;49.404;8.246;2023-03-01T16:03:02;397.67;;;275.58;;
19448;SDS011;9863;49.404;8.246;2023-03-01T16:05:33;411.98;;;281.45;;
19448;SDS011;9863;49.404;8.246;2023-03-01T16:08:01;406.95;;;279.20;;
19448;SDS011;9863;49.404;8.246;2023-03-01T16:10:29;410.58;;;276.45;;
19448;SDS011;9863;49.404;8.246;2023-03-01T16:12:57;411.60;;;272.60;;
19448;SDS011;9863;49.404;8.246;2023-03-01T16:15:26;411.38;;;281.48;;
19448;SDS011;9863;49.404;8.246;2023-03-01T16:17:58;397.85;;;267.17;;
19448;SDS011;9863;49.404;8.246;2023-03-01T16:20:25;406.30;;;272.58;;
19448;SDS011;9863;49.404;8.246;2023-03-01T16:23:02;398.50;;;261.80;;
19448;SDS011;9863;49.404;8.246;2023-03-01T16:25:36;428.55;;;272.63;;
19448;SDS011;9863;49.404;8.246;2023-03-01T16:28:04;396.70;;;255.82;;
19448;SDS011;9863;49.404;8.246;2023-03-01T16:30:36;418.88;;;263.60;;
19448;SDS011;9863;49.404;8.246;2023-03-01T16:33:05;419.00;;;258.08;;
19448;SDS011;9863;49.404;8.246;2023-03-01T16:35:54;402.27;;;241.98;;
19448;SDS011;9863;49.404;8.246;2023-03-01T16:38:21;390.85;;;243.70;;
19448;SDS011;9863;49.404;8.246;2023-03-01T16:40:49;401.38;;;247.95;;
19448;SDS011;9863;49.404;8.246;2023-03-01T16:43:17;400.00;;;239.20;;
19448;SDS011;9863;49.404;8.246;2023-03-01T16:45:45;392.77;;;229.50;;
19448;SDS011;9863;49.404;8.246;2023-03-01T16:48:13;386.35;;;225.45;;
19448;SDS011;9863;49.404;8.246;2023-03-01T16:50:40;390.70;;;220.98;;
19448;SDS011;9863;49.404;8.246;2023-03-01T16:53:07;407.58;;;231.50;;
19448;SDS011;9863;49.404;8.246;2023-03-01T16:55:35;404.02;;;223.05;;
19448;SDS011;9863;49.404;8.246;2023-03-01T16:58:02;401.95;;;219.55;;
19448;SDS011;9863;49.404;8.246;2023-03-01T17:00:30;393.88;;;209.23;;
19448;SDS011;9863;49.404;8.246;2023-03-01T17:02:57;403.92;;;207.57;;
19448;SDS011;9863;49.404;8.246;2023-03-01T17:05:24;386.52;;;199.75;;
19448;SDS011;9863;49.404;8.246;2023-03-01T17:07:52;386.27;;;198.55;;
19448;SDS011;9863;49.404;8.246;2023-03-01T17:10:21;386.65;;;189.20;;